createdAt,value
2023-03-06T00:01:09.147Z,3.60
2023-03-06T00:03:36.796Z,3.60
2023-03-06T00:06:04.533Z,3.50
2023-03-06T00:08:32.077Z,3.50
2023-03-06T00:11:00.249Z,3.50
2023-03-06T00:13:30.178Z,3.50
2023-03-06T00:16:00.991Z,3.50
2023-03-06T00:18:28.690Z,3.50
2023-03-06T00:20:56.262Z,3.50
2023-03-06T00:23:23.797Z,3.50
2023-03-06T00:25:51.383Z,3.50
2023-03-06T00:28:18.881Z,3.50
2023-03-06T00:30:47.397Z,3.50
2023-03-06T00:33:14.955Z,3.50
2023-03-06T00:35:42.593Z,3.50
2023-03-06T00:38:14.494Z,3.50
2023-03-06T00:40:42.035Z,3.50
2023-03-06T00:43:10.093Z,3.50
2023-03-06T00:45:37.893Z,3.50
2023-03-06T00:48:05.807Z,3.40
2023-03-06T00:50:35.141Z,3.40
2023-03-06T00:53:02.731Z,3.50
2023-03-06T00:55:31.082Z,3.50
2023-03-06T00:57:58.683Z,3.50
2023-03-06T01:00:28.427Z,3.50
2023-03-06T01:02:56.056Z,3.50
2023-03-06T01:05:24.730Z,3.50
2023-03-06T01:07:52.278Z,3.50
2023-03-06T01:10:20.237Z,3.50
2023-03-06T01:12:48.708Z,3.50
2023-03-06T01:15:16.229Z,3.50
2023-03-06T01:17:45.092Z,3.50
2023-03-06T01:20:18.923Z,3.50
2023-03-06T01:22:46.491Z,3.50
2023-03-06T01:25:14.021Z,3.40
2023-03-06T01:27:41.634Z,3.40
2023-03-06T01:30:12.494Z,3.40
2023-03-06T01:32:40.193Z,3.40
2023-03-06T01:35:08.858Z,3.40
2023-03-06T01:37:37.392Z,3.40
2023-03-06T01:40:06.565Z,3.40
2023-03-06T01:42:34.120Z,3.40
2023-03-06T01:45:12.959Z,3.40
2023-03-06T01:47:40.467Z,3.40
2023-03-06T01:50:12.573Z,3.40
2023-03-06T01:52:52.530Z,3.30
2023-03-06T01:55:26.128Z,3.30
2023-03-06T01:57:59.768Z,3.30
2023-03-06T02:00:29.056Z,3.20
2023-03-06T02:03:10.320Z,3.20
2023-03-06T02:05:41.228Z,3.20
2023-03-06T02:08:13.843Z,3.20
2023-03-06T02:10:50.095Z,3.20
2023-03-06T02:13:17.669Z,3.20
2023-03-06T02:15:45.276Z,3.20
2023-03-06T02:18:13.921Z,3.30
2023-03-06T02:20:52.469Z,3.20
2023-03-06T02:23:59.571Z,3.20
2023-03-06T02:26:28.660Z,3.10
2023-03-06T02:28:58.416Z,3.10
2023-03-06T02:31:31.772Z,3.10
2023-03-06T02:34:16.649Z,3.20
2023-03-06T02:37:08.813Z,3.20
2023-03-06T02:39:42.943Z,3.20
2023-03-06T02:42:17.426Z,3.10
2023-03-06T02:44:45.234Z,3.10
2023-03-06T02:47:12.945Z,3.10
2023-03-06T02:49:40.432Z,3.20
2023-03-06T02:52:08.131Z,3.10
2023-03-06T02:54:35.672Z,3.10
2023-03-06T02:57:03.259Z,3.10
2023-03-06T02:59:32.473Z,3.10
2023-03-06T03:02:00.072Z,3.10
2023-03-06T03:04:27.649Z,3.10
2023-03-06T03:06:55.528Z,3.10
2023-03-06T03:09:23.500Z,3.10
2023-03-06T03:11:50.979Z,3.10
2023-03-06T03:14:18.732Z,3.10
2023-03-06T03:16:47.949Z,3.10
2023-03-06T03:19:15.416Z,3.10
2023-03-06T03:21:43.506Z,3.20
2023-03-06T03:24:11.051Z,3.20
2023-03-06T03:26:38.670Z,3.10
2023-03-06T03:29:12.241Z,3.20
2023-03-06T03:31:39.748Z,3.20
2023-03-06T03:34:08.280Z,3.20
2023-03-06T03:36:39.078Z,3.20
2023-03-06T03:39:08.896Z,3.20
2023-03-06T03:41:36.728Z,3.20
2023-03-06T03:44:07.897Z,3.20
2023-03-06T03:46:36.218Z,3.20
2023-03-06T03:49:05.666Z,3.10
2023-03-06T03:51:33.390Z,3.10
2023-03-06T03:54:01.267Z,3.10
2023-03-06T03:56:34.760Z,3.10
2023-03-06T03:59:09.185Z,3.10
2023-03-06T04:01:45.855Z,3.10
2023-03-06T04:04:13.823Z,3.00
2023-03-06T04:06:42.986Z,3.10
2023-03-06T04:09:10.926Z,3.00
2023-03-06T04:11:38.995Z,3.00
2023-03-06T04:14:08.231Z,3.00
2023-03-06T04:16:36.146Z,3.00
2023-03-06T04:19:03.749Z,3.00
2023-03-06T04:21:32.068Z,3.00
2023-03-06T04:24:00.172Z,3.00
2023-03-06T04:26:27.674Z,3.00
2023-03-06T04:28:56.110Z,3.00
2023-03-06T04:31:23.804Z,3.00
2023-03-06T04:33:51.325Z,3.00
2023-03-06T04:36:35.462Z,3.00
2023-03-06T04:39:07.728Z,3.00
2023-03-06T04:41:35.891Z,3.00
2023-03-06T04:44:03.596Z,3.00
2023-03-06T04:46:31.122Z,3.10
2023-03-06T04:48:58.625Z,3.00
2023-03-06T04:51:26.439Z,3.00
2023-03-06T04:53:53.908Z,3.00
2023-03-06T04:56:21.471Z,3.00
2023-03-06T04:58:49.200Z,3.00
2023-03-06T05:01:16.684Z,3.00
2023-03-06T05:03:44.184Z,3.00
2023-03-06T05:06:11.688Z,3.00
2023-03-06T05:08:39.218Z,3.00
2023-03-06T05:11:06.955Z,3.00
2023-03-06T05:13:34.453Z,3.00
2023-03-06T05:16:06.970Z,3.00
2023-03-06T05:18:35.786Z,3.00
2023-03-06T05:21:04.996Z,3.00
2023-03-06T05:23:36.285Z,3.00
2023-03-06T05:26:09.199Z,3.00
2023-03-06T05:28:36.797Z,3.00
2023-03-06T05:31:05.389Z,3.00
2023-03-06T05:33:34.692Z,3.00
2023-03-06T05:36:02.552Z,3.00
2023-03-06T05:38:30.132Z,3.00
2023-03-06T05:40:57.642Z,3.10
2023-03-06T05:43:25.146Z,3.00
2023-03-06T05:46:04.618Z,3.00
2023-03-06T05:48:33.141Z,3.00
2023-03-06T05:51:02.377Z,3.00
2023-03-06T05:53:30.902Z,3.00
2023-03-06T05:56:08.811Z,3.00
2023-03-06T05:58:36.743Z,2.90
2023-03-06T06:01:17.607Z,2.90
2023-03-06T06:03:46.352Z,3.00
2023-03-06T06:06:15.356Z,2.90
2023-03-06T06:08:43.054Z,3.00
2023-03-06T06:11:12.981Z,2.90
2023-03-06T06:13:41.754Z,3.00
2023-03-06T06:16:16.373Z,3.00
2023-03-06T06:18:44.004Z,3.00
2023-03-06T06:21:14.348Z,2.90
2023-03-06T06:23:42.488Z,2.90
2023-03-06T06:26:10.917Z,2.90
2023-03-06T06:28:38.469Z,2.90
2023-03-06T06:31:13.055Z,3.00
2023-03-06T06:33:41.525Z,3.00
2023-03-06T06:36:18.015Z,3.00
2023-03-06T06:38:45.529Z,2.90
2023-03-06T06:41:38.904Z,2.90
2023-03-06T06:44:01.399Z,3.00
2023-03-06T06:49:17.380Z,3.00
2023-03-06T06:51:45.728Z,3.10
2023-03-06T06:54:13.327Z,3.10
2023-03-06T06:56:40.830Z,3.10
2023-03-06T06:59:16.685Z,3.10
2023-03-06T07:01:45.133Z,3.00
2023-03-06T07:04:14.128Z,3.10
2023-03-06T07:06:42.719Z,3.10
2023-03-06T07:09:10.432Z,3.10
2023-03-06T07:11:39.581Z,3.10
2023-03-06T07:14:07.072Z,3.10
2023-03-06T07:16:34.886Z,3.20
2023-03-06T07:19:02.736Z,3.20
2023-03-06T07:21:30.309Z,3.20
2023-03-06T07:23:58.071Z,3.20
2023-03-06T07:26:27.365Z,3.30
2023-03-06T07:28:55.355Z,3.30
2023-03-06T07:31:26.931Z,3.40
2023-03-06T07:33:55.557Z,3.40
2023-03-06T07:36:23.943Z,3.40
2023-03-06T07:38:51.493Z,3.50
2023-03-06T07:41:21.960Z,3.50
2023-03-06T07:43:50.525Z,3.50
2023-03-06T07:46:19.274Z,3.50
2023-03-06T07:48:46.813Z,3.50
2023-03-06T07:51:18.029Z,3.60
2023-03-06T07:53:45.907Z,3.50
2023-03-06T07:56:13.941Z,3.60
2023-03-06T07:58:45.021Z,3.50
2023-03-06T08:01:16.832Z,3.60
2023-03-06T08:03:44.415Z,3.60
2023-03-06T08:06:16.728Z,3.70
2023-03-06T08:08:47.137Z,3.70
2023-03-06T08:11:17.782Z,3.60
2023-03-06T08:13:45.471Z,3.60
2023-03-06T08:16:12.990Z,3.70
2023-03-06T08:18:40.551Z,3.80
2023-03-06T08:21:14.750Z,3.80
2023-03-06T08:23:42.877Z,3.70
2023-03-06T08:26:23.409Z,3.60
2023-03-06T08:28:52.883Z,3.70
2023-03-06T08:31:43.172Z,3.60
2023-03-06T08:34:17.666Z,3.70
2023-03-06T08:36:45.412Z,3.50
2023-03-06T08:39:14.059Z,3.60
2023-03-06T08:41:42.293Z,3.60
2023-03-06T08:44:12.119Z,3.50
2023-03-06T08:46:39.942Z,3.50
2023-03-06T08:49:07.566Z,3.60
2023-03-06T08:51:35.722Z,3.60
2023-03-06T08:54:03.559Z,3.60
2023-03-06T08:56:34.050Z,3.70
2023-03-06T08:59:04.403Z,3.70
2023-03-06T09:01:36.522Z,3.70
2023-03-06T09:04:08.495Z,3.80
2023-03-06T09:06:41.058Z,3.80
2023-03-06T09:09:09.806Z,3.80
2023-03-06T09:11:38.055Z,3.70
2023-03-06T09:14:06.178Z,3.70
2023-03-06T09:16:33.746Z,3.60
2023-03-06T09:19:01.344Z,3.60
2023-03-06T09:21:28.857Z,3.50
2023-03-06T09:24:22.170Z,3.50
2023-03-06T09:26:51.621Z,3.50
2023-03-06T09:29:19.294Z,3.50
2023-03-06T09:31:46.822Z,3.50
2023-03-06T09:34:14.634Z,3.50
2023-03-06T09:36:55.336Z,3.40
2023-03-06T09:39:26.376Z,3.50
2023-03-06T09:41:55.157Z,3.50
2023-03-06T09:44:30.944Z,3.60
2023-03-06T09:47:29.566Z,3.60
2023-03-06T09:50:30.680Z,3.70
2023-03-06T09:53:32.698Z,3.70
2023-03-06T09:56:13.329Z,3.50
2023-03-06T09:59:13.200Z,3.60
2023-03-06T10:01:44.922Z,3.70
2023-03-06T10:04:41.657Z,3.60
2023-03-06T10:07:21.489Z,3.70
2023-03-06T10:09:57.274Z,3.60
2023-03-06T10:12:29.151Z,3.60
2023-03-06T10:15:19.424Z,3.80
2023-03-06T10:17:47.325Z,3.90
2023-03-06T10:20:19.213Z,4.00
2023-03-06T10:23:05.468Z,4.00
2023-03-06T10:26:24.321Z,4.00
2023-03-06T10:29:10.830Z,4.10
2023-03-06T10:31:44.662Z,4.20
2023-03-06T10:34:24.119Z,4.40
2023-03-06T10:36:51.820Z,4.50
2023-03-06T10:39:22.761Z,4.70
2023-03-06T10:41:50.338Z,4.70
2023-03-06T10:44:21.181Z,4.70
2023-03-06T10:46:52.017Z,4.70
2023-03-06T10:49:35.970Z,4.80
2023-03-06T10:52:20.612Z,4.90
2023-03-06T10:54:48.585Z,4.80
2023-03-06T10:57:29.408Z,4.60
2023-03-06T11:00:04.525Z,4.50
2023-03-06T11:02:39.423Z,4.60
2023-03-06T11:05:19.649Z,4.60
2023-03-06T11:07:59.719Z,4.80
2023-03-06T11:10:30.466Z,4.80
2023-03-06T11:13:21.248Z,4.80
2023-03-06T11:16:30.498Z,4.80
2023-03-06T11:19:03.911Z,4.80
2023-03-06T11:21:34.957Z,4.80
2023-03-06T11:24:22.869Z,4.80
2023-03-06T11:26:59.693Z,4.80
2023-03-06T11:29:38.873Z,4.80
2023-03-06T11:32:18.463Z,4.90
2023-03-06T11:35:02.739Z,5.00
2023-03-06T11:37:49.458Z,4.90
2023-03-06T11:40:37.240Z,4.80
2023-03-06T11:43:48.075Z,4.80
2023-03-06T11:46:28.806Z,4.90
2023-03-06T11:49:38.328Z,4.90
2023-03-06T11:52:33.683Z,4.90
2023-03-06T11:55:01.318Z,4.90
2023-03-06T11:57:49.093Z,4.90
2023-03-06T12:00:32.839Z,5.00
2023-03-06T12:03:50.004Z,5.10
2023-03-06T12:06:36.593Z,5.30
2023-03-06T12:09:13.182Z,5.40
2023-03-06T12:12:06.402Z,5.40
2023-03-06T12:14:37.412Z,5.40
2023-03-06T12:18:05.638Z,5.40
2023-03-06T12:21:16.176Z,5.50
2023-03-06T12:23:55.629Z,5.50
2023-03-06T12:26:35.702Z,5.40
2023-03-06T12:29:41.434Z,5.50
2023-03-06T12:32:57.545Z,5.50
2023-03-06T12:36:07.620Z,5.50
2023-03-06T12:39:35.758Z,5.30
2023-03-06T12:42:31.233Z,5.30
2023-03-06T12:45:21.822Z,5.40
2023-03-06T12:47:54.281Z,5.40
2023-03-06T12:50:32.519Z,5.50
2023-03-06T12:53:12.538Z,5.50
2023-03-06T12:55:43.768Z,5.40
2023-03-06T12:58:29.866Z,5.50
2023-03-06T13:01:52.089Z,5.60
2023-03-06T13:05:14.774Z,5.50
2023-03-06T13:08:22.686Z,5.50
2023-03-06T13:11:47.483Z,5.60
2023-03-06T13:14:37.538Z,5.70
2023-03-06T13:17:34.381Z,5.80
2023-03-06T13:20:14.118Z,5.70
2023-03-06T13:22:43.606Z,5.70
2023-03-06T13:25:46.792Z,5.70
2023-03-06T13:28:46.035Z,5.70
2023-03-06T13:31:27.584Z,5.60
2023-03-06T13:34:02.260Z,5.60
2023-03-06T13:36:37.597Z,5.60
2023-03-06T13:39:11.372Z,5.50
2023-03-06T13:41:55.098Z,5.50
2023-03-06T13:44:25.609Z,5.50
2023-03-06T13:47:48.843Z,5.40
2023-03-06T13:50:47.735Z,5.40
2023-03-06T13:53:44.871Z,5.30
2023-03-06T13:56:47.519Z,5.20
2023-03-06T14:00:08.300Z,5.20
2023-03-06T14:03:17.883Z,5.30
2023-03-06T14:05:48.920Z,5.30
2023-03-06T14:08:24.002Z,5.30
2023-03-06T14:11:06.661Z,5.40
2023-03-06T14:13:47.427Z,5.60
2023-03-06T14:16:23.456Z,5.40
2023-03-06T14:18:53.765Z,5.40
2023-03-06T14:21:31.654Z,5.40
2023-03-06T14:24:02.267Z,5.50
2023-03-06T14:26:40.105Z,5.60
2023-03-06T14:29:24.654Z,5.60
2023-03-06T14:31:58.728Z,5.60
2023-03-06T14:34:30.083Z,5.60
2023-03-06T14:37:05.501Z,5.60
2023-03-06T14:39:44.810Z,5.60
2023-03-06T14:42:19.517Z,5.50
2023-03-06T14:44:49.170Z,5.50
2023-03-06T14:47:32.390Z,5.50
2023-03-06T14:50:49.031Z,5.50
2023-03-06T14:53:23.088Z,5.50
2023-03-06T14:55:58.923Z,5.50
2023-03-06T14:58:51.401Z,5.50
2023-03-06T15:01:31.440Z,5.40
2023-03-06T15:04:01.290Z,5.30
2023-03-06T15:06:42.529Z,5.30
2023-03-06T15:09:26.645Z,5.30
2023-03-06T15:12:20.289Z,5.30
2023-03-06T15:14:58.017Z,5.20
2023-03-06T15:17:30.387Z,5.20
2023-03-06T15:20:01.829Z,5.30
2023-03-06T15:22:50.013Z,5.20
2023-03-06T15:25:22.272Z,5.20
2023-03-06T15:27:51.601Z,5.10
2023-03-06T15:30:33.282Z,4.90
2023-03-06T15:33:25.042Z,4.80
2023-03-06T15:36:01.942Z,4.70
2023-03-06T15:38:44.614Z,4.70
2023-03-06T15:41:37.288Z,4.60
2023-03-06T15:44:13.908Z,4.60
2023-03-06T15:46:42.140Z,4.60
2023-03-06T15:49:16.821Z,4.70
2023-03-06T15:51:44.541Z,4.40
2023-03-06T15:54:12.988Z,4.40
2023-03-06T15:56:44.212Z,4.40
2023-03-06T15:59:22.125Z,4.50
2023-03-06T16:01:50.740Z,4.50
2023-03-06T16:04:19.830Z,4.50
2023-03-06T16:06:47.416Z,4.40
2023-03-06T16:09:14.983Z,4.40
2023-03-06T16:11:44.759Z,4.50
2023-03-06T16:14:23.924Z,4.50
2023-03-06T16:16:56.589Z,4.50
2023-03-06T16:19:27.418Z,4.50
2023-03-06T16:21:56.697Z,4.40
2023-03-06T16:24:26.065Z,4.50
2023-03-06T16:26:55.033Z,4.40
2023-03-06T16:29:26.360Z,4.50
2023-03-06T16:31:56.865Z,4.40
2023-03-06T16:34:25.060Z,4.40
2023-03-06T16:36:52.748Z,4.40
2023-03-06T16:39:23.751Z,4.40
2023-03-06T16:41:52.424Z,4.40
2023-03-06T16:44:20.909Z,4.40
2023-03-06T16:46:50.234Z,4.50
2023-03-06T16:49:22.029Z,4.30
2023-03-06T16:51:50.960Z,4.20
2023-03-06T16:54:18.761Z,4.10
2023-03-06T16:56:46.465Z,4.20
2023-03-06T16:59:13.984Z,4.30
2023-03-06T17:01:45.380Z,4.30
2023-03-06T17:04:12.909Z,4.40
2023-03-06T17:06:41.781Z,4.40
2023-03-06T17:09:14.259Z,4.40
2023-03-06T17:11:44.761Z,4.40
2023-03-06T17:14:12.593Z,4.40
2023-03-06T17:16:40.642Z,4.40
2023-03-06T17:19:11.431Z,4.40
2023-03-06T17:21:39.238Z,4.40
2023-03-06T17:24:07.462Z,4.30
2023-03-06T17:26:36.958Z,4.30
2023-03-06T17:29:06.936Z,4.30
2023-03-06T17:31:34.660Z,4.20
2023-03-06T17:34:02.224Z,4.30
2023-03-06T17:36:31.433Z,4.20
2023-03-06T17:39:01.893Z,4.20
2023-03-06T17:41:29.860Z,4.20
2023-03-06T17:43:58.657Z,4.10
2023-03-06T17:46:26.347Z,4.10
2023-03-06T17:48:55.403Z,4.10
2023-03-06T17:51:23.240Z,4.10
2023-03-06T17:53:52.152Z,4.00
2023-03-06T17:56:19.958Z,4.10
2023-03-06T17:58:47.676Z,4.10
2023-03-06T18:01:19.235Z,4.20
2023-03-06T18:03:49.908Z,4.20
2023-03-06T18:06:18.629Z,4.20
2023-03-06T18:08:46.612Z,4.20
2023-03-06T18:11:15.495Z,4.20
2023-03-06T18:13:46.342Z,4.10
2023-03-06T18:16:17.552Z,4.10
2023-03-06T18:18:45.979Z,4.10
2023-03-06T18:21:16.099Z,4.10
2023-03-06T18:23:43.769Z,4.10
2023-03-06T18:26:16.765Z,4.10
2023-03-06T18:28:48.329Z,4.20
2023-03-06T18:31:28.066Z,4.10
2023-03-06T18:33:58.759Z,4.00
2023-03-06T18:36:29.779Z,4.00
2023-03-06T18:38:58.646Z,4.00
2023-03-06T18:41:27.290Z,4.00
2023-03-06T18:43:57.312Z,4.00
2023-03-06T18:46:28.882Z,4.00
2023-03-06T18:48:56.417Z,4.00
2023-03-06T18:51:24.099Z,4.00
2023-03-06T18:53:51.689Z,4.00
2023-03-06T18:56:22.021Z,4.00
2023-03-06T18:58:50.396Z,3.90
2023-03-06T19:01:18.509Z,4.00
2023-03-06T19:03:46.486Z,4.00
2023-03-06T19:06:16.913Z,3.90
2023-03-06T19:08:44.819Z,4.00
2023-03-06T19:11:15.613Z,3.90
2023-03-06T19:13:43.953Z,3.90
2023-03-06T19:16:21.661Z,3.90
2023-03-06T19:18:49.222Z,3.80
2023-03-06T19:21:20.594Z,3.90
2023-03-06T19:23:48.739Z,3.90
2023-03-06T19:26:18.636Z,3.90
2023-03-06T19:28:47.890Z,3.90
2023-03-06T19:31:27.480Z,3.80
2023-03-06T19:33:57.091Z,3.80
2023-03-06T19:36:28.709Z,3.90
2023-03-06T19:38:58.389Z,3.90
2023-03-06T19:41:27.189Z,3.90
2023-03-06T19:44:02.295Z,3.90
2023-03-06T19:46:29.967Z,3.90
2023-03-06T19:49:00.279Z,3.90
2023-03-06T19:51:28.557Z,3.80
2023-03-06T19:53:57.502Z,3.80
2023-03-06T19:56:28.696Z,3.90
2023-03-06T19:58:56.653Z,3.90
2023-03-06T20:01:27.087Z,3.90
2023-03-06T20:03:58.656Z,3.80
2023-03-06T20:06:31.017Z,3.80
2023-03-06T20:08:58.866Z,3.80
2023-03-06T20:11:31.472Z,3.90
2023-03-06T20:14:01.931Z,3.80
2023-03-06T20:16:31.188Z,3.80
2023-03-06T20:19:01.069Z,3.80
2023-03-06T20:21:32.424Z,3.70
2023-03-06T20:24:00.078Z,3.70
2023-03-06T20:26:29.023Z,3.70
2023-03-06T20:28:57.702Z,3.70
2023-03-06T20:31:29.341Z,3.80
2023-03-06T20:33:58.876Z,3.70
2023-03-06T20:36:30.160Z,3.70
2023-03-06T20:39:01.334Z,3.70
2023-03-06T20:41:30.544Z,3.70
2023-03-06T20:43:59.620Z,3.70
2023-03-06T20:46:27.200Z,3.70
2023-03-06T20:48:55.888Z,3.70
2023-03-06T20:51:28.489Z,3.70
2023-03-06T20:53:56.727Z,3.70
2023-03-06T20:56:30.994Z,3.60
2023-03-06T20:58:59.342Z,3.70
2023-03-06T21:01:33.834Z,3.70
2023-03-06T21:04:04.446Z,3.70
2023-03-06T21:06:32.714Z,3.70
2023-03-06T21:09:01.719Z,3.60
2023-03-06T21:11:29.352Z,3.60
2023-03-06T21:13:57.127Z,3.60
2023-03-06T21:16:27.060Z,3.60
2023-03-06T21:18:56.072Z,3.60
2023-03-06T21:21:28.154Z,3.60
2023-03-06T21:23:55.926Z,3.60
2023-03-06T21:26:26.714Z,3.60
2023-03-06T21:28:56.478Z,3.60
2023-03-06T21:31:24.239Z,3.60
2023-03-06T21:33:52.450Z,3.60
2023-03-06T21:36:23.996Z,3.60
2023-03-06T21:38:52.479Z,3.70
2023-03-06T21:41:27.153Z,3.60
2023-03-06T21:44:00.420Z,3.70
2023-03-06T21:46:28.562Z,3.70
2023-03-06T21:48:57.830Z,3.70
2023-03-06T21:51:26.618Z,3.70
2023-03-06T21:53:55.351Z,3.70
2023-03-06T21:56:25.655Z,3.70
2023-03-06T21:58:53.678Z,3.70
2023-03-06T22:01:25.719Z,3.70
2023-03-06T22:03:53.434Z,3.60
2023-03-06T22:06:25.308Z,3.60
2023-03-06T22:08:55.044Z,3.60
2023-03-06T22:11:24.354Z,3.60
2023-03-06T22:13:55.648Z,3.60
2023-03-06T22:16:23.857Z,3.60
2023-03-06T22:18:52.014Z,3.60
2023-03-06T22:21:22.110Z,3.60
2023-03-06T22:23:57.176Z,3.60
2023-03-06T22:26:26.667Z,3.60
2023-03-06T22:28:54.572Z,3.60
2023-03-06T22:31:26.084Z,3.60
2023-03-06T22:33:55.700Z,3.60
2023-03-06T22:36:24.034Z,3.60
2023-03-06T22:38:57.378Z,3.60
2023-03-06T22:41:26.721Z,3.70
2023-03-06T22:43:59.666Z,3.60
2023-03-06T22:46:28.073Z,3.60
2023-03-06T22:48:57.080Z,3.60
2023-03-06T22:51:25.906Z,3.60
2023-03-06T22:53:54.066Z,3.60
2023-03-06T22:56:22.335Z,3.60
2023-03-06T22:58:49.931Z,3.60
2023-03-06T23:01:21.442Z,3.60
2023-03-06T23:03:52.047Z,3.60
2023-03-06T23:06:27.321Z,3.60
2023-03-06T23:09:00.323Z,3.60
2023-03-06T23:11:29.730Z,3.60
2023-03-06T23:14:17.356Z,3.50
2023-03-06T23:17:03.738Z,3.40
2023-03-06T23:19:50.269Z,3.40
2023-03-06T23:22:36.574Z,3.40
2023-03-06T23:25:22.892Z,3.40
2023-03-06T23:27:50.412Z,3.40
2023-03-06T23:30:18.177Z,3.40
2023-03-06T23:32:46.135Z,3.30
2023-03-06T23:35:14.400Z,3.30
2023-03-06T23:37:42.614Z,3.20
2023-03-06T23:40:11.624Z,3.30
2023-03-06T23:42:39.164Z,3.20
2023-03-06T23:45:07.565Z,3.20
2023-03-06T23:47:35.081Z,3.30
2023-03-06T23:50:02.659Z,3.20
2023-03-06T23:52:30.158Z,3.20
2023-03-06T23:54:57.772Z,3.20
2023-03-06T23:57:25.241Z,3.20
2023-03-06T23:59:53.317Z,3.10
